Aérodrome :
LOGIN :

S'inscrire | Disclaimer

   EN    FR    IT 

 










Légende :    VFR   VFR Marginal   IFR   IFR Intensif   IFR Très Intensif
Visi : 
Plafond : 
>= 8 km
>= 3000ft
5 à 8 km
1000 à 3000 ft
1500m à 5 km
500 à 1000 ft
800 à 1500m
200 à 500 ft
< 800m
< 200 ft
Symboles :   Orages  Brouillard  Fortes neiges  Fortes précipitations  Vent > 20 kt
SIGMETs :   Divers  Orages  Givrage  Turbulence  Onde Orograph.  Cendres Volcan.







- Altitude de l'aérodrome : 1411 ft
- Code IATA : SZG


LOWS - Salzburg

DERNIER METAR :
  • 210050Z AUTO 15006KT 130V190 9999 FEW040 SCT250 10/07 Q1019

METARs EXPIRÉS :
  • 210020Z AUTO 17006KT 9999 FEW040 BKN180 10/07 Q1019
  • 202350Z AUTO 17004KT 9999 OVC190 10/06 Q1019
  • 202320Z AUTO 16005KT 130V200 9999 BKN190 09/06 Q1019
  • 202250Z AUTO 17004KT 9999 BKN250 09/07 Q1019
  • 202220Z AUTO 18004KT 9999 FEW150 BKN200 09/07 Q1019
  • 202150Z AUTO 15003KT 120V190 9999 OVC200 10/07 Q1019

TAF TAF LOWS
Valide du 21 à 00h jusqu'au 22 à 00h UTC


202315Z 2100/2124 15005KT CAVOK TX19/2112Z TN08/2103Z
TEMPO 2103/2110 9999 FEW060 BKN100
BECMG 2122/2124 30006KT 9999 -RA SCT040 BKN060
Pas de NOTAMs connus pour ce terrain.



MET'MAP, la Météo Aéronautique d'un coup d'oeil ! - Copyright ORBIFLY Décembre 2007 - Disclaimer

ORBIFLY MET'MAP TEAM :

Programmation & Développement : Alexandra Zaïnal
Conception & Développement : Baudouin d'Aumeries
Co-Programmation & Développement : Marc-Olivier Méhu
Soutien technique & logistique : Manuel Goepfert

Contact : metmap@orbifly.com




SOURCES & CREDITS :

   NOAA